Time;durP1;ratioP1;P1;durP2;ratioP2;P2;SDS_P1;SDS_P2;PMS_P1;PMS_P2;Temp;Humidity;BMP_temperature;BMP_pressure;BME280_temperature;BME280_humidity;BME280_pressure;Samples;Min_cycle;Max_cycle;Signal;HPM_P1;HPM_P2
2022/09/28 00:01:21;;;;;;;18.75;10.20;;;10.80;99.90;;;;;;5032942;28;20022;-71
2022/09/28 00:03:48;;;;;;;13.63;8.98;;;10.80;99.90;;;;;;5032151;28;20032;-72
2022/09/28 00:06:17;;;;;;;19.13;10.02;;;10.80;99.90;;;;;;5032657;28;20515;-72
2022/09/28 00:08:43;;;;;;;20.08;9.52;;;10.70;99.90;;;;;;5032538;28;20048;-71
2022/09/28 00:11:14;;;;;;;13.65;9.77;;;10.70;99.90;;;;;;5032419;28;20037;-71
2022/09/28 00:13:41;;;;;;;16.67;11.00;;;10.70;99.90;;;;;;5032582;28;20052;-72
2022/09/28 00:16:10;;;;;;;19.88;10.60;;;10.60;99.90;;;;;;5032162;28;20306;-71
2022/09/28 00:18:36;;;;;;;15.30;10.05;;;10.70;99.90;;;;;;5032090;28;20578;-72
2022/09/28 00:21:11;;;;;;;21.08;10.82;;;10.60;99.90;;;;;;5032421;28;20124;-72
2022/09/28 00:26:22;;;;;;;20.00;10.73;;;10.60;99.90;;;;;;5032289;28;20036;-70
2022/09/28 00:28:54;;;;;;;21.98;11.55;;;10.60;99.90;;;;;;5030868;28;20033;-70
2022/09/28 00:31:21;;;;;;;17.15;10.88;;;10.60;99.90;;;;;;5032515;28;20040;-72
2022/09/28 00:33:51;;;;;;;19.40;10.52;;;10.50;99.90;;;;;;5031979;28;20039;-72
2022/09/28 00:36:17;;;;;;;15.50;10.20;;;10.50;99.90;;;;;;5031791;28;20048;-71
2022/09/28 00:38:42;;;;;;;16.02;10.60;;;10.50;99.90;;;;;;5030772;28;20037;-70
2022/09/28 00:41:10;;;;;;;20.02;10.05;;;10.50;99.90;;;;;;5031813;28;20037;-71
2022/09/28 00:43:36;;;;;;;15.68;10.07;;;10.50;99.90;;;;;;5032669;28;20021;-70
2022/09/28 00:46:09;;;;;;;15.68;10.13;;;10.50;99.90;;;;;;5031767;28;20298;-71
2022/09/28 00:48:38;;;;;;;17.63;10.48;;;10.40;99.90;;;;;;5031767;28;20041;-71
2022/09/28 00:51:08;;;;;;;18.70;11.00;;;10.40;99.90;;;;;;5031694;28;20029;-72
2022/09/28 00:53:36;;;;;;;16.95;10.63;;;10.30;99.90;;;;;;5031634;28;20040;-73
2022/09/28 00:56:06;;;;;;;;;;;10.30;99.90;;;;;;5031939;28;20162;-72
2022/09/28 00:58:39;;;;;;;15.82;10.43;;;10.30;99.90;;;;;;5031878;28;20242;-71
2022/09/28 01:01:05;;;;;;;18.17;11.60;;;10.30;99.90;;;;;;5031489;28;20029;-71
2022/09/28 01:03:32;;;;;;;19.25;10.48;;;10.30;99.90;;;;;;5031396;28;20040;-72
2022/09/28 01:06:01;;;;;;;22.83;10.00;;;10.20;99.90;;;;;;5031393;28;20110;-71
2022/09/28 01:08:28;;;;;;;20.40;10.38;;;10.20;99.90;;;;;;5030213;28;20521;-71
2022/09/28 01:10:54;;;;;;;14.83;9.93;;;10.20;99.90;;;;;;5031327;28;20167;-71
2022/09/28 01:13:22;;;;;;;17.33;9.38;;;10.20;99.90;;;;;;5029950;28;20141;-72
2022/09/28 01:16:11;;;;;;;;;;;10.30;99.90;;;;;;5031619;28;20080;-72
2022/09/28 01:18:46;;;;;;;13.88;8.77;;;10.20;99.90;;;;;;5029676;28;19917;-71
2022/09/28 01:21:17;;;;;;;14.32;8.43;;;10.30;99.90;;;;;;5031318;28;20021;-70
2022/09/28 01:24:01;;;;;;;15.68;8.25;;;10.30;99.90;;;;;;5031315;28;20040;-71
2022/09/28 01:26:55;;;;;;;12.00;8.07;;;10.30;99.90;;;;;;5031041;28;20036;-72
2022/09/28 01:29:32;;;;;;;17.75;9.32;;;10.30;99.90;;;;;;5031109;28;20056;-72
2022/09/28 01:33:00;;;;;;;15.35;8.40;;;10.30;99.90;;;;;;5029909;28;20038;-71
2022/09/28 01:35:36;;;;;;;12.55;8.13;;;10.30;99.90;;;;;;5033419;28;20425;-72
2022/09/28 01:38:12;;;;;;;12.88;8.27;;;10.30;99.90;;;;;;5048487;28;20037;-71
2022/09/28 01:40:38;;;;;;;58.47;32.13;;;10.30;99.90;;;;;;5038163;28;20033;-72
2022/09/28 01:43:16;;;;;;;179.23;99.40;;;10.30;99.90;;;;;;5029709;28;20054;-70
2022/09/28 01:45:53;;;;;;;29.30;16.92;;;10.40;99.90;;;;;;5030869;28;20463;-71
2022/09/28 01:48:42;;;;;;;15.75;9.40;;;10.50;99.90;;;;;;5030612;28;20033;-72
2022/09/28 01:51:13;;;;;;;11.02;7.95;;;10.40;99.90;;;;;;5030636;28;20427;-70
2022/09/28 01:53:44;;;;;;;12.98;7.60;;;10.50;99.90;;;;;;5030508;28;20036;-71
2022/09/28 01:56:25;;;;;;;14.80;7.55;;;10.50;99.90;;;;;;5030766;28;20025;-70
2022/09/28 01:58:58;;;;;;;11.90;7.78;;;10.50;99.90;;;;;;5030976;28;20108;-70
2022/09/28 02:01:30;;;;;;;12.27;7.28;;;10.50;99.90;;;;;;5031073;28;20506;-72
2022/09/28 02:04:09;;;;;;;13.02;7.45;;;10.50;99.90;;;;;;5029449;28;20048;-71
2022/09/28 02:06:55;;;;;;;12.07;6.90;;;10.50;99.90;;;;;;5030698;28;20090;-72
2022/09/28 02:09:33;;;;;;;10.45;7.05;;;10.50;99.90;;;;;;5030383;28;20037;-71
2022/09/28 02:12:06;;;;;;;14.57;8.20;;;10.60;99.90;;;;;;5030243;28;20033;-72
2022/09/28 02:14:35;;;;;;;15.23;7.78;;;10.60;99.90;;;;;;5030200;28;20034;-72
2022/09/28 02:17:01;;;;;;;11.10;7.40;;;10.60;99.90;;;;;;5030357;28;20057;-71
2022/09/28 02:19:29;;;;;;;15.45;7.10;;;10.60;99.90;;;;;;5030729;28;20041;-71
2022/09/28 02:21:58;;;;;;;;;;;10.60;99.90;;;;;;5030827;28;20025;-72
2022/09/28 02:24:34;;;;;;;12.95;6.28;;;10.60;99.90;;;;;;5030227;28;19951;-71
2022/09/28 02:27:11;;;;;;;11.60;6.97;;;10.60;99.90;;;;;;5032719;28;20073;-71
2022/09/28 02:29:36;;;;;;;12.82;7.20;;;10.60;99.90;;;;;;5033332;28;20025;-71
2022/09/28 02:32:02;;;;;;;11.73;6.82;;;10.70;99.90;;;;;;5034468;28;20021;-71
2022/09/28 02:34:28;;;;;;;9.63;6.53;;;10.70;99.90;;;;;;5034608;28;20029;-71
2022/09/28 02:36:53;;;;;;;10.55;6.88;;;10.70;99.90;;;;;;5034081;28;20033;-72
2022/09/28 02:39:19;;;;;;;13.13;7.00;;;10.70;99.90;;;;;;5033932;28;20360;-72
2022/09/28 02:42:20;;;;;;;8.77;6.32;;;10.60;99.90;;;;;;5033016;28;20427;-72
2022/09/28 02:45:04;;;;;;;10.18;5.95;;;10.70;99.90;;;;;;5034064;28;20057;-71
2022/09/28 02:47:37;;;;;;;9.85;7.25;;;10.70;99.90;;;;;;5033962;28;20072;-71
2022/09/28 02:50:28;;;;;;;8.60;5.90;;;10.70;99.90;;;;;;5034090;28;20091;-70
2022/09/28 02:53:07;;;;;;;10.45;6.03;;;10.70;99.90;;;;;;5033957;28;20036;-70
2022/09/28 02:55:35;;;;;;;10.43;5.57;;;10.70;99.90;;;;;;5034221;28;20045;-70
2022/09/28 02:58:33;;;;;;;7.10;5.38;;;10.70;99.90;;;;;;5033784;28;20034;-72
2022/09/28 03:01:02;;;;;;;12.07;5.47;;;10.70;99.90;;;;;;5032586;28;20033;-71
2022/09/28 03:03:47;;;;;;;14.13;5.57;;;10.70;99.90;;;;;;5033579;28;20037;-71
2022/09/28 03:06:23;;;;;;;8.43;5.90;;;10.70;99.90;;;;;;5033866;28;20466;-72
2022/09/28 03:09:03;;;;;;;8.45;6.28;;;10.70;99.90;;;;;;5033677;28;20115;-71
2022/09/28 03:11:52;;;;;;;8.20;5.80;;;10.70;99.90;;;;;;5033607;28;20076;-71
2022/09/28 03:14:18;;;;;;;8.45;6.10;;;10.70;99.90;;;;;;5033245;28;20491;-72
2022/09/28 03:16:44;;;;;;;7.05;5.75;;;10.70;99.90;;;;;;5065716;28;20037;-71
2022/09/28 03:19:11;;;;;;;9.15;6.47;;;10.70;99.90;;;;;;5033780;28;20029;-71
2022/09/28 03:21:38;;;;;;;10.50;6.25;;;10.70;99.90;;;;;;5033221;28;20029;-71
2022/09/28 03:24:04;;;;;;;9.93;6.75;;;10.70;99.90;;;;;;5033439;28;20172;-70
2022/09/28 03:26:31;;;;;;;11.80;6.20;;;10.80;99.90;;;;;;5031972;28;20030;-70
2022/09/28 03:28:56;;;;;;;9.48;6.68;;;10.70;99.90;;;;;;5033262;28;20434;-71
2022/09/28 03:31:22;;;;;;;8.68;5.70;;;10.80;99.90;;;;;;5033502;28;20044;-70
2022/09/28 03:33:50;;;;;;;9.23;5.97;;;10.80;99.90;;;;;;5033135;28;20109;-69
2022/09/28 03:36:15;;;;;;;14.38;7.55;;;10.80;99.90;;;;;;5032699;28;20029;-69
2022/09/28 03:38:41;;;;;;;12.55;6.53;;;10.80;99.90;;;;;;5032557;28;20386;-71
2022/09/28 03:41:07;;;;;;;10.60;6.30;;;10.90;99.90;;;;;;5032851;28;20057;-71
2022/09/28 03:43:32;;;;;;;11.68;7.43;;;10.90;99.90;;;;;;5032593;28;20022;-71
2022/09/28 03:46:00;;;;;;;10.57;6.80;;;10.90;99.90;;;;;;5031799;28;20041;-71
2022/09/28 03:48:32;;;;;;;14.10;6.40;;;10.90;99.90;;;;;;5033039;28;20033;-71
2022/09/28 03:51:01;;;;;;;10.13;6.75;;;10.90;99.90;;;;;;5031724;28;20041;-71
2022/09/28 03:53:28;;;;;;;8.57;6.75;;;10.90;99.90;;;;;;5032837;28;20059;-71
2022/09/28 03:55:54;;;;;;;9.98;6.40;;;10.90;99.90;;;;;;5032730;28;20037;-70
2022/09/28 03:58:20;;;;;;;8.45;5.97;;;10.90;99.90;;;;;;5033033;28;20108;-71
2022/09/28 04:00:46;;;;;;;11.20;6.72;;;10.90;99.90;;;;;;5032700;28;20087;-72
2022/09/28 04:03:12;;;;;;;19.17;10.00;;;10.90;99.90;;;;;;5032605;28;20041;-71
2022/09/28 04:05:38;;;;;;;10.48;6.53;;;10.90;99.90;;;;;;5032487;28;20072;-71
2022/09/28 04:08:03;;;;;;;10.35;6.55;;;10.90;99.90;;;;;;5032356;28;20099;-71
2022/09/28 04:10:29;;;;;;;7.85;5.72;;;10.90;99.90;;;;;;5032679;28;20072;-72
2022/09/28 04:12:56;;;;;;;9.45;6.40;;;11.00;99.90;;;;;;5032755;28;20052;-71
2022/09/28 04:15:23;;;;;;;8.98;5.82;;;11.00;99.90;;;;;;5032463;28;20047;-70
2022/09/28 04:17:49;;;;;;;10.57;5.82;;;11.00;99.90;;;;;;5032350;28;20471;-71
2022/09/28 04:20:14;;;;;;;8.30;5.22;;;11.00;99.90;;;;;;5031236;28;20044;-71
2022/09/28 04:22:40;;;;;;;9.52;6.43;;;11.00;99.90;;;;;;5031505;28;20025;-71
2022/09/28 04:25:06;;;;;;;8.20;6.22;;;11.00;99.90;;;;;;5032229;28;20475;-70
2022/09/28 04:30:16;;;;;;;7.05;5.57;;;11.00;99.90;;;;;;5032113;28;20502;-71
2022/09/28 04:32:42;;;;;;;7.47;5.70;;;11.00;99.90;;;;;;5031986;28;20029;-70
2022/09/28 04:35:10;;;;;;;9.20;5.55;;;11.00;99.90;;;;;;5032165;28;20044;-70
2022/09/28 04:37:36;;;;;;;7.07;5.82;;;11.00;99.90;;;;;;5032350;28;20025;-70
2022/09/28 04:40:02;;;;;;;7.40;5.55;;;11.00;99.90;;;;;;5031677;28;20091;-71
2022/09/28 04:42:28;;;;;;;9.20;6.10;;;11.00;99.90;;;;;;5031833;28;20553;-72
2022/09/28 04:44:56;;;;;;;10.38;5.95;;;11.00;99.90;;;;;;5030618;28;20033;-71
2022/09/28 04:47:22;;;;;;;8.68;6.40;;;11.10;99.90;;;;;;5030730;28;20159;-71
2022/09/28 04:49:48;;;;;;;13.55;5.80;;;11.10;99.90;;;;;;5030723;28;20557;-70
2022/09/28 04:52:13;;;;;;;8.13;5.78;;;11.10;99.90;;;;;;5032398;28;20435;-71
2022/09/28 04:54:39;;;;;;;8.52;5.85;;;11.00;99.90;;;;;;5031554;28;20030;-71
2022/09/28 04:57:05;;;;;;;8.48;5.70;;;11.00;99.90;;;;;;5030376;28;20447;-72
2022/09/28 04:59:30;;;;;;;9.63;5.82;;;11.00;99.90;;;;;;5031413;28;20041;-72
2022/09/28 05:01:56;;;;;;;10.93;5.70;;;11.10;99.90;;;;;;5031438;28;20053;-71
2022/09/28 05:04:22;;;;;;;11.90;5.82;;;11.00;99.90;;;;;;5032400;28;20025;-71
2022/09/28 05:06:48;;;;;;;10.52;5.95;;;11.00;99.90;;;;;;5031476;28;20038;-70
2022/09/28 05:09:13;;;;;;;9.18;6.53;;;11.00;99.90;;;;;;5030001;28;20038;-72
2022/09/28 05:11:39;;;;;;;13.18;6.38;;;11.10;99.90;;;;;;5031253;28;20095;-72
2022/09/28 05:14:05;;;;;;;10.00;5.60;;;11.10;99.90;;;;;;5030926;28;20045;-72
2022/09/28 05:16:32;;;;;;;10.52;5.93;;;11.10;99.90;;;;;;5031544;28;20029;-72
2022/09/28 05:18:58;;;;;;;8.60;6.50;;;11.10;99.90;;;;;;5031465;28;20061;-71
2022/09/28 05:21:26;;;;;;;8.85;5.63;;;11.10;99.90;;;;;;5031351;28;20029;-70
2022/09/28 05:23:54;;;;;;;9.52;6.32;;;11.10;99.90;;;;;;5031198;28;20038;-72
2022/09/28 05:26:21;;;;;;;11.23;6.68;;;11.00;99.90;;;;;;5031252;28;20464;-72
2022/09/28 05:28:46;;;;;;;11.27;6.70;;;11.00;99.90;;;;;;5030656;28;20040;-72
2022/09/28 05:31:13;;;;;;;9.35;6.18;;;11.10;99.90;;;;;;5047798;28;20025;-71
2022/09/28 05:33:39;;;;;;;14.50;7.03;;;11.10;99.90;;;;;;5050006;28;20474;-71
2022/09/28 05:36:09;;;;;;;10.30;6.45;;;11.00;99.90;;;;;;5051016;28;20055;-70
2022/09/28 05:38:35;;;;;;;16.35;7.47;;;11.10;99.90;;;;;;5049960;28;20032;-71
2022/09/28 05:41:01;;;;;;;12.32;6.82;;;11.10;99.90;;;;;;5051037;28;20032;-71
2022/09/28 05:43:26;;;;;;;12.63;8.00;;;11.20;99.90;;;;;;5051532;28;20382;-73
2022/09/28 05:45:52;;;;;;;12.27;7.38;;;11.10;99.90;;;;;;5051047;28;20029;-72
2022/09/28 05:48:18;;;;;;;13.88;7.53;;;11.10;99.90;;;;;;5050762;28;20039;-72
2022/09/28 05:50:43;;;;;;;13.90;8.13;;;11.20;99.90;;;;;;5050876;28;20021;-72
2022/09/28 05:53:09;;;;;;;15.27;7.68;;;11.10;99.90;;;;;;5050563;28;20028;-72
2022/09/28 05:55:36;;;;;;;10.25;6.95;;;11.20;99.90;;;;;;5051025;28;20108;-73
2022/09/28 05:58:05;;;;;;;13.05;8.15;;;11.20;99.90;;;;;;5050647;28;20025;-73
2022/09/28 06:00:32;;;;;;;17.35;8.10;;;11.20;99.90;;;;;;5049062;28;20036;-74
2022/09/28 06:03:00;;;;;;;12.02;7.68;;;11.10;99.90;;;;;;5050657;28;20086;-72
2022/09/28 06:05:27;;;;;;;12.98;7.90;;;11.20;99.90;;;;;;5050514;28;20029;-72
2022/09/28 06:07:56;;;;;;;13.90;8.13;;;11.20;99.90;;;;;;5049385;28;20032;-72
2022/09/28 06:10:22;;;;;;;12.50;7.80;;;11.20;99.90;;;;;;5050969;28;20155;-73
2022/09/28 06:12:52;;;;;;;16.65;7.47;;;11.20;99.90;;;;;;5049358;28;20459;-72
2022/09/28 06:15:17;;;;;;;12.20;7.45;;;11.20;99.90;;;;;;5050300;28;20440;-72
2022/09/28 06:17:43;;;;;;;11.85;7.30;;;11.30;99.90;;;;;;5049323;28;20029;-72
2022/09/28 06:20:10;;;;;;;16.13;8.32;;;11.20;99.90;;;;;;5051118;28;20454;-72
2022/09/28 06:22:36;;;;;;;16.98;8.15;;;11.30;99.90;;;;;;5051492;28;20099;-74
2022/09/28 06:25:03;;;;;;;13.55;7.13;;;11.30;99.90;;;;;;5050347;28;20029;-72
2022/09/28 06:27:28;;;;;;;12.73;7.45;;;11.30;99.90;;;;;;5041467;28;20048;-72
2022/09/28 06:29:54;;;;;;;12.32;6.85;;;11.30;99.90;;;;;;5029276;28;20030;-72
2022/09/28 06:32:19;;;;;;;17.48;7.68;;;11.30;99.90;;;;;;5030103;28;20097;-72
2022/09/28 06:34:45;;;;;;;12.00;7.93;;;11.40;99.90;;;;;;5029345;28;20078;-72
2022/09/28 06:37:11;;;;;;;14.68;7.43;;;11.40;99.90;;;;;;5030694;28;20124;-73
2022/09/28 06:39:36;;;;;;;11.55;7.70;;;11.40;99.90;;;;;;5030032;28;20026;-72
2022/09/28 06:42:03;;;;;;;16.85;6.95;;;11.40;99.90;;;;;;5030608;28;20070;-73
2022/09/28 06:44:29;;;;;;;13.98;8.07;;;11.40;99.90;;;;;;5029868;28;20433;-73
2022/09/28 06:46:55;;;;;;;13.25;8.40;;;11.50;99.90;;;;;;5029905;28;20032;-74
2022/09/28 06:49:21;;;;;;;13.40;8.52;;;11.50;99.90;;;;;;5030620;28;20033;-73
2022/09/28 06:51:47;;;;;;;15.32;7.72;;;11.50;99.90;;;;;;5030045;28;20109;-73
2022/09/28 06:54:13;;;;;;;13.38;7.50;;;11.50;99.90;;;;;;5030275;28;20034;-73
2022/09/28 06:56:39;;;;;;;12.57;7.88;;;11.50;99.90;;;;;;5030041;28;20025;-72
2022/09/28 06:59:05;;;;;;;16.02;8.98;;;11.50;99.90;;;;;;5030033;28;20107;-74
2022/09/28 07:01:30;;;;;;;12.18;7.75;;;11.50;99.90;;;;;;5063218;28;20029;-71
2022/09/28 07:03:56;;;;;;;12.63;7.85;;;11.50;99.90;;;;;;5045261;28;20030;-72
2022/09/28 07:06:23;;;;;;;16.40;9.18;;;11.50;99.90;;;;;;5029882;28;20048;-71
2022/09/28 07:08:49;;;;;;;12.50;8.20;;;11.60;99.90;;;;;;5029964;28;20037;-72
2022/09/28 07:11:15;;;;;;;17.90;9.40;;;11.60;99.90;;;;;;5030178;28;20029;-71
2022/09/28 07:13:41;;;;;;;15.07;8.63;;;11.60;99.90;;;;;;5033114;28;20049;-73
2022/09/28 07:16:07;;;;;;;19.42;8.68;;;11.60;99.90;;;;;;5034248;28;20033;-73
2022/09/28 07:18:32;;;;;;;16.42;9.30;;;11.70;99.90;;;;;;5033997;28;20390;-74
2022/09/28 07:20:58;;;;;;;13.95;8.70;;;11.60;99.90;;;;;;5033712;28;20117;-72
2022/09/28 07:23:26;;;;;;;14.48;8.70;;;11.60;99.90;;;;;;5033116;28;20029;-72
2022/09/28 07:25:52;;;;;;;13.93;8.73;;;11.60;99.90;;;;;;5033101;28;20028;-72
2022/09/28 07:28:18;;;;;;;15.35;8.77;;;11.60;99.90;;;;;;5033847;28;20047;-73
2022/09/28 07:30:44;;;;;;;13.68;8.73;;;11.60;99.90;;;;;;5065368;28;20084;-72
2022/09/28 07:33:13;;;;;;;12.85;7.90;;;11.70;99.90;;;;;;5032123;28;20033;-72
2022/09/28 07:35:40;;;;;;;15.65;8.85;;;11.60;99.90;;;;;;5032891;28;20030;-73
2022/09/28 07:38:07;;;;;;;14.90;8.40;;;11.60;99.90;;;;;;5065389;28;20386;-72
2022/09/28 07:43:20;;;;;;;14.43;7.85;;;11.50;99.90;;;;;;5033048;28;20095;-72
2022/09/28 07:45:51;;;;;;;13.93;7.82;;;11.60;99.90;;;;;;5033193;28;20083;-72
2022/09/28 07:48:17;;;;;;;10.35;7.63;;;11.70;99.90;;;;;;5033389;28;20105;-71
2022/09/28 07:50:50;;;;;;;10.68;6.65;;;11.60;99.90;;;;;;5033374;28;20030;-71
2022/09/28 07:53:17;;;;;;;6.93;5.07;;;11.60;99.90;;;;;;5032752;28;20483;-72
2022/09/28 07:55:43;;;;;;;7.28;4.18;;;11.60;99.90;;;;;;5033100;28;20418;-73
2022/09/28 07:58:08;;;;;;;7.57;4.32;;;11.30;99.90;;;;;;5032486;28;20116;-72
2022/09/28 08:00:34;;;;;;;6.43;3.47;;;11.30;99.90;;;;;;5031341;28;20033;-73
2022/09/28 08:03:01;;;;;;;5.80;3.28;;;11.10;99.90;;;;;;5032368;28;20108;-71
2022/09/28 08:05:30;;;;;;;5.30;3.17;;;11.00;99.90;;;;;;5031234;28;20056;-71
2022/09/28 08:07:58;;;;;;;6.05;3.45;;;11.10;99.90;;;;;;5032408;28;20466;-72
2022/09/28 08:10:27;;;;;;;8.07;3.85;;;10.80;99.90;;;;;;5032745;28;20406;-72
2022/09/28 08:13:00;;;;;;;5.97;3.63;;;11.00;99.90;;;;;;5031285;28;20030;-71
2022/09/28 08:15:26;;;;;;;6.05;4.00;;;11.10;99.90;;;;;;5031148;28;20049;-72
2022/09/28 08:17:52;;;;;;;6.00;3.30;;;11.20;99.90;;;;;;5032077;28;20026;-72
2022/09/28 08:23:04;;;;;;;5.30;3.28;;;11.00;99.90;;;;;;5032014;28;20033;-71
2022/09/28 08:25:30;;;;;;;5.50;3.17;;;11.00;99.90;;;;;;5032551;28;20317;-71
2022/09/28 08:27:55;;;;;;;8.73;4.05;;;11.20;99.90;;;;;;5031851;28;20470;-70
2022/09/28 08:30:21;;;;;;;4.57;3.08;;;11.20;99.90;;;;;;5031767;28;20033;-72
2022/09/28 08:32:50;;;;;;;5.47;3.33;;;11.20;99.90;;;;;;5032045;28;20128;-70
2022/09/28 08:35:16;;;;;;;5.20;3.17;;;11.30;99.90;;;;;;5031890;28;20044;-73
2022/09/28 08:37:41;;;;;;;6.13;4.05;;;11.40;99.90;;;;;;5032039;28;20384;-72
2022/09/28 08:40:17;;;;;;;18.65;8.43;;;11.40;99.90;;;;;;5031948;28;20112;-71
2022/09/28 08:42:44;;;;;;;6.57;3.75;;;11.40;99.90;;;;;;5031726;28;20022;-70
2022/09/28 08:45:16;;;;;;;6.50;3.70;;;11.40;99.90;;;;;;5031755;28;20036;-70
2022/09/28 08:50:52;;;;;;;8.52;3.70;;;11.50;99.90;;;;;;5031654;28;20128;-71
2022/09/28 08:53:53;;;;;;;6.50;4.32;;;11.60;99.90;;;;;;5031760;28;20026;-70
2022/09/28 08:56:38;;;;;;;7.82;4.57;;;11.70;99.90;;;;;;5031420;28;20033;-73
2022/09/28 08:59:19;;;;;;;7.50;4.72;;;11.60;99.90;;;;;;5031358;28;20042;-73
2022/09/28 09:01:55;;;;;;;8.82;4.00;;;11.70;99.90;;;;;;5031350;28;20295;-75
2022/09/28 09:04:21;;;;;;;3.67;3.08;;;11.70;99.90;;;;;;5032048;28;20036;-75
2022/09/28 09:07:13;;;;;;;10.80;4.03;;;11.80;99.90;;;;;;5031654;28;20025;-75
2022/09/28 09:09:57;;;;;;;6.50;3.78;;;11.80;99.90;;;;;;5031310;28;20041;-75
2022/09/28 09:13:02;;;;;;;6.45;3.63;;;11.80;99.90;;;;;;5031552;28;20535;-75
2022/09/28 09:15:37;;;;;;;3.92;2.80;;;11.80;99.90;;;;;;5028966;28;20045;-75
2022/09/28 09:18:24;;;;;;;6.97;4.60;;;11.90;99.90;;;;;;5031258;28;20117;-74
2022/09/28 09:20:54;;;;;;;;;;;11.80;99.90;;;;;;5031519;28;20142;-75
2022/09/28 09:23:42;;;;;;;6.25;3.40;;;11.80;99.90;;;;;;5031289;28;19909;-75
2022/09/28 09:26:19;;;;;;;6.03;3.15;;;11.70;99.90;;;;;;5031095;28;20113;-73
2022/09/28 09:29:03;;;;;;;4.85;3.30;;;11.50;99.90;;;;;;5030849;28;20404;-73
2022/09/28 09:31:57;;;;;;;6.55;4.03;;;11.70;99.90;;;;;;5031357;28;20032;-72
2022/09/28 09:34:37;;;;;;;5.82;3.33;;;11.80;99.90;;;;;;5030473;28;20095;-71
2022/09/28 09:37:16;;;;;;;5.40;3.22;;;11.80;99.90;;;;;;5030919;28;20087;-71
2022/09/28 09:40:01;;;;;;;7.82;3.20;;;11.80;99.90;;;;;;5030733;28;20180;-71
2022/09/28 09:42:47;;;;;;;6.32;2.92;;;11.80;99.90;;;;;;5030730;28;20025;-75
2022/09/28 09:45:51;;;;;;;5.00;3.03;;;11.90;99.90;;;;;;5030895;28;20051;-71
2022/09/28 09:48:24;;;;;;;3.83;2.20;;;11.90;99.90;;;;;;5030740;28;20060;-71
2022/09/28 09:50:56;;;;;;;1.85;1.67;;;11.80;99.90;;;;;;5030634;28;20487;-72
2022/09/28 09:53:43;;;;;;;4.82;2.30;;;11.80;99.90;;;;;;5030341;28;20095;-71
2022/09/28 09:56:18;;;;;;;3.58;2.13;;;11.90;99.90;;;;;;5030144;28;20047;-71
2022/09/28 09:58:49;;;;;;;4.63;2.10;;;11.90;99.90;;;;;;5030739;28;20029;-72
2022/09/28 10:01:18;;;;;;;4.80;2.90;;;11.80;99.90;;;;;;5030610;28;20132;-71
2022/09/28 10:03:47;;;;;;;5.32;2.00;;;12.00;99.90;;;;;;5030553;28;20129;-71
2022/09/28 10:06:36;;;;;;;4.80;2.05;;;11.90;99.90;;;;;;5030484;28;20036;-71
2022/09/28 10:09:31;;;;;;;5.72;2.00;;;11.90;99.90;;;;;;5029930;28;20061;-71
2022/09/28 10:11:57;;;;;;;2.83;2.38;;;12.00;99.90;;;;;;5030394;28;20029;-71
2022/09/28 10:14:24;;;;;;;3.63;2.53;;;12.10;99.90;;;;;;5030101;28;20499;-71
2022/09/28 10:16:55;;;;;;;3.77;2.87;;;12.20;99.90;;;;;;5030255;28;20033;-71
2022/09/28 10:19:31;;;;;;;6.30;3.15;;;12.10;99.90;;;;;;5030465;28;20091;-72
2022/09/28 10:21:58;;;;;;;5.68;3.63;;;12.00;99.90;;;;;;5062362;28;20022;-71
2022/09/28 10:24:40;;;;;;;5.07;3.08;;;11.90;99.90;;;;;;5029145;28;20132;-71
2022/09/28 10:27:27;;;;;;;4.72;2.95;;;12.00;99.90;;;;;;5030283;28;20033;-70
2022/09/28 10:30:11;;;;;;;2.95;2.55;;;11.80;99.90;;;;;;5030218;28;20034;-71
2022/09/28 10:32:45;;;;;;;6.60;3.03;;;11.70;99.90;;;;;;5030223;28;20026;-71
2022/09/28 10:35:16;;;;;;;3.97;2.90;;;11.70;99.90;;;;;;5028941;28;20459;-71
2022/09/28 10:38:02;;;;;;;4.85;2.85;;;11.60;99.90;;;;;;5030368;28;20105;-71
2022/09/28 10:40:30;;;;;;;4.10;3.40;;;11.80;99.90;;;;;;5010417;28;20068;-71
2022/09/28 10:43:21;;;;;;;8.25;3.10;;;11.50;99.90;;;;;;5027308;28;20399;-71
2022/09/28 10:45:58;;;;;;;6.50;3.42;;;11.70;99.90;;;;;;5029847;28;20037;-71
2022/09/28 10:48:24;;;;;;;5.88;3.10;;;11.80;99.90;;;;;;5019488;28;20474;-71
2022/09/28 10:51:05;;;;;;;4.70;3.55;;;11.70;99.90;;;;;;5014198;28;20121;-71
2022/09/28 10:53:31;;;;;;;7.78;4.50;;;11.70;99.90;;;;;;5014203;28;20029;-71
2022/09/28 10:56:07;;;;;;;12.15;6.80;;;11.70;99.90;;;;;;5013023;28;20484;-71
2022/09/28 10:58:39;;;;;;;12.45;5.75;;;11.70;99.90;;;;;;5014417;28;20014;-71
2022/09/28 11:01:12;;;;;;;8.52;4.85;;;11.80;99.90;;;;;;5065431;28;20399;-72
2022/09/28 11:03:54;;;;;;;6.20;3.53;;;12.00;99.90;;;;;;5018183;28;20050;-72
2022/09/28 11:06:45;;;;;;;5.32;3.70;;;12.00;99.90;;;;;;5013848;28;20021;-71
2022/09/28 11:09:33;;;;;;;5.05;3.28;;;12.00;99.90;;;;;;5013729;28;20041;-72
2022/09/28 11:12:00;;;;;;;;;;;11.90;99.90;;;;;;5014174;28;20110;-71
2022/09/28 11:14:35;;;;;;;4.97;3.30;;;11.90;99.90;;;;;;5013702;28;19921;-71
2022/09/28 11:17:37;;;;;;;6.82;3.60;;;11.90;99.90;;;;;;5013801;28;20057;-71
2022/09/28 11:20:24;;;;;;;7.07;3.85;;;11.90;99.90;;;;;;5013414;28;20021;-70
2022/09/28 11:22:58;;;;;;;4.63;3.10;;;12.00;99.90;;;;;;5013542;28;20030;-72
2022/09/28 11:25:29;;;;;;;5.75;3.70;;;11.90;99.90;;;;;;5013987;28;20054;-73
2022/09/28 11:27:57;;;;;;;5.97;3.85;;;11.80;99.90;;;;;;5013386;28;20475;-69
2022/09/28 11:30:32;;;;;;;4.97;3.30;;;12.00;99.90;;;;;;5013338;28;20034;-72
2022/09/28 11:33:37;;;;;;;6.38;3.45;;;12.10;99.90;;;;;;5013441;28;20034;-71
2022/09/28 11:36:17;;;;;;;4.97;3.40;;;12.00;99.90;;;;;;5012819;28;20378;-71
2022/09/28 11:38:54;;;;;;;5.68;3.88;;;11.90;99.90;;;;;;5013368;28;20137;-71
2022/09/28 11:41:44;;;;;;;7.13;4.60;;;12.10;99.90;;;;;;5013221;28;20355;-73
2022/09/28 11:44:37;;;;;;;5.38;3.80;;;12.00;99.90;;;;;;5012057;28;20521;-72
2022/09/28 11:47:18;;;;;;;8.00;5.18;;;11.90;99.90;;;;;;5011958;28;20091;-72
2022/09/28 11:50:00;;;;;;;12.63;6.88;;;12.10;99.90;;;;;;5012989;28;20025;-71
2022/09/28 11:52:34;;;;;;;4.97;3.80;;;12.10;99.90;;;;;;5013336;28;20022;-73
2022/09/28 11:55:30;;;;;;;7.63;4.18;;;12.10;99.90;;;;;;5013082;28;20030;-71
2022/09/28 11:58:08;;;;;;;5.70;4.20;;;12.20;99.90;;;;;;4998220;28;20380;-71
2022/09/28 12:00:41;;;;;;;8.52;4.28;;;12.20;99.90;;;;;;5012982;28;20490;-73
2022/09/28 12:03:29;;;;;;;6.32;3.97;;;12.50;99.90;;;;;;5012864;28;20377;-72
2022/09/28 12:05:59;;;;;;;4.95;3.70;;;12.50;99.90;;;;;;5022285;28;20044;-72
2022/09/28 12:08:36;;;;;;;4.07;3.47;;;12.60;99.90;;;;;;5025925;28;20260;-71
2022/09/28 12:11:16;;;;;;;5.15;3.90;;;12.70;99.90;;;;;;5012724;28;20476;-70
2022/09/28 12:13:48;;;;;;;6.63;4.60;;;12.70;99.90;;;;;;5011797;28;20072;-72
2022/09/28 12:16:28;;;;;;;7.63;3.50;;;12.80;99.90;;;;;;5012968;28;20521;-71
2022/09/28 12:19:03;;;;;;;4.65;3.42;;;12.80;99.90;;;;;;5012315;28;20042;-72
2022/09/28 12:21:51;;;;;;;12.40;3.72;;;12.70;99.90;;;;;;5012335;28;20022;-71
2022/09/28 12:24:29;;;;;;;5.65;4.03;;;12.90;99.90;;;;;;5012474;28;20048;-71
2022/09/28 12:27:18;;;;;;;;;;;12.90;99.90;;;;;;5012862;28;20038;-69
2022/09/28 12:30:11;;;;;;;8.45;4.45;;;13.00;99.90;;;;;;5044281;28;20288;-71
2022/09/28 12:32:49;;;;;;;5.38;4.28;;;13.10;99.90;;;;;;5012287;28;20026;-72
2022/09/28 12:35:35;;;;;;;6.88;4.20;;;13.10;99.90;;;;;;5012202;28;20026;-71
2022/09/28 12:38:12;;;;;;;9.23;4.97;;;13.10;99.90;;;;;;5012099;28;20025;-72
2022/09/28 12:40:47;;;;;;;5.85;4.07;;;13.10;99.90;;;;;;5012476;28;20333;-72
2022/09/28 12:43:39;;;;;;;5.40;3.65;;;13.30;99.90;;;;;;5012114;28;20060;-71
2022/09/28 12:46:41;;;;;;;6.13;2.92;;;13.40;99.90;;;;;;5011991;28;20623;-72
2022/09/28 12:49:12;;;;;;;6.35;2.40;;;13.40;99.30;;;;;;5012040;28;20046;-73
2022/09/28 12:52:00;;;;;;;3.30;2.63;;;13.40;98.50;;;;;;5012023;28;20072;-72
2022/09/28 12:54:35;;;;;;;3.55;2.80;;;13.50;98.80;;;;;;5012476;28;20430;-73
2022/09/28 12:57:31;;;;;;;5.45;2.45;;;13.60;98.70;;;;;;5012268;28;20375;-73
2022/09/28 13:00:03;;;;;;;3.78;2.80;;;13.30;97.60;;;;;;5011793;28;20037;-72
2022/09/28 13:02:56;;;;;;;4.90;2.80;;;13.40;98.30;;;;;;5027620;28;20121;-71
2022/09/28 13:05:35;;;;;;;3.40;2.55;;;13.40;98.10;;;;;;5011713;28;20577;-70
2022/09/28 13:08:20;;;;;;;3.25;2.53;;;13.30;97.80;;;;;;5012828;28;20100;-71
2022/09/28 13:10:51;;;;;;;7.93;3.33;;;13.40;97.60;;;;;;5010430;28;20124;-71
2022/09/28 13:13:36;;;;;;;4.03;2.72;;;13.40;98.00;;;;;;5044247;28;20021;-72
2022/09/28 13:16:30;;;;;;;9.30;4.65;;;13.40;97.70;;;;;;5010546;28;20116;-72
2022/09/28 13:19:26;;;;;;;19.88;9.95;;;13.40;97.40;;;;;;5010234;28;20026;-73
2022/09/28 13:22:04;;;;;;;5.22;3.08;;;13.40;97.60;;;;;;5011447;28;20034;-72
2022/09/28 13:24:32;;;;;;;;;;;13.20;97.00;;;;;;5011761;28;20034;-71
2022/09/28 13:27:05;;;;;;;5.43;2.30;;;13.10;97.60;;;;;;5011451;28;19909;-74